Date,TemperatureHighF,TemperatureAvgF,TemperatureLowF,DewpointHighF,DewpointAvgF,DewpointLowF,HumidityHigh,HumidityAvg,HumidityLow,PressureMaxIn,PressureMinIn,WindSpeedMaxMPH,WindSpeedAvgMPH,GustSpeedMaxMPH,PrecipitationSumIn
2013-2-1,7.3,1.9,-5.4,4.3,-0.9,-8.7,90,88,84,30.14,29.86,0,0,0,0.00
2013-2-2,18.0,9.7,5.0,11.7,5.9,1.5,90,84,74,29.87,29.49,0,0,0,0.00
2013-2-3,11.5,8.4,5.0,8.5,5.8,2.2,92,89,86,29.49,29.30,0,0,0,0.00
2013-2-4,15.4,9.9,6.1,12.8,7.6,3.3,92,90,88,29.62,29.45,0,0,0,0.00
2013-2-5,7.1,2.6,-2.6,4.6,-0.0,-5.5,91,88,86,29.63,29.58,0,0,0,0.00
2013-2-6,5.1,1.3,-3.1,2.1,-1.5,-6.2,89,88,86,29.70,29.57,0,0,0,0.00
2013-2-7,9.9,1.9,-5.3,7.8,-0.8,-8.4,91,88,85,29.68,29.29,0,0,0,0.00
2013-2-8,7.6,3.0,0.4,5.3,0.2,-2.5,90,88,84,29.80,29.31,0,0,0,0.00
2013-2-9,28.8,17.8,2.1,23.8,14.7,-0.4,95,88,79,29.79,29.00,0,0,0,0.00
2013-2-10,32.1,21.7,9.3,27.8,18.6,6.7,93,88,79,29.44,28.91,0,0,0,0.00
2013-2-11,20.9,14.5,3.6,16.5,11.6,-99.9,93,89,81,29.68,29.44,0,-4,0,0.00
2013-2-12,15.2,5.9,-0.8,12.7,3.4,-3.7,92,89,85,29.77,29.68,0,0,0,0.00
2013-2-13,19.7,10.0,3.7,16.2,7.7,1.2,93,90,83,29.77,29.72,0,0,0,0.00
2013-2-14,25.3,20.2,11.3,17.4,13.6,9.1,92,76,59,29.73,29.30,0,0,0,0.00
2013-2-15,21.9,8.3,-6.4,17.3,4.2,-10.2,89,83,79,30.01,29.39,0,0,0,0.00
2013-2-16,2.1,-6.1,-12.8,-3.3,-9.8,-16.5,87,84,76,30.09,29.88,0,0,0,0.00
2013-2-17,-2.2,-5.9,-10.1,-5.1,-9.9,-15.0,87,82,78,30.16,29.82,0,0,0,0.00
2013-2-18,-10.2,-17.8,-24.5,-15.1,-22.3,-29.1,82,79,74,30.27,30.15,0,0,0,0.00
2013-2-19,-4.1,-16.0,-27.2,-10.5,-20.9,-31.9,82,77,72,30.15,29.60,0,0,0,0.00
2013-2-20,6.5,-5.0,-15.3,-2.5,-11.1,-19.9,83,75,60,29.60,29.38,0,0,0,0.00
2013-2-21,1.4,-1.8,-5.1,-4.6,-6.9,-8.8,86,78,68,29.43,29.32,0,0,0,0.00
2013-2-22,-3.7,-9.0,-18.2,-8.0,-13.4,-22.5,84,81,74,29.61,29.36,0,0,0,0.00
2013-2-23,4.3,-5.1,-14.5,-1.9,-9.9,-18.7,85,79,71,29.54,29.31,0,0,0,0.00
2013-2-24,8.0,-4.0,-10.1,0.2,-8.5,-13.6,87,81,69,29.68,29.33,0,0,0,0.00
2013-2-25,20.0,4.7,-7.6,11.2,0.2,-11.1,90,82,65,29.74,29.68,0,0,0,0.00
2013-2-26,27.0,13.3,3.7,10.2,6.1,0.2,90,74,44,29.74,29.43,0,0,0,0.00
2013-2-27,29.5,18.4,8.7,15.8,10.3,4.0,83,71,53,29.43,29.27,0,0,0,0.00
2013-2-28,32.2,18.2,8.7,18.4,10.7,4.7,86,73,43,29.43,29.32,0,0,0,0.00